sensor_id;sensor_type;location;lat;lon;timestamp;pressure;altitude;pressure_sealevel;temperature;humidity
70458;BME280;57919;56.194;95.716;2022-10-14T00:02:13;100484.25;;;2.89;77.79
70458;BME280;57919;56.194;95.716;2022-10-14T00:12:15;100495.00;;;2.87;77.52
70458;BME280;57919;56.194;95.716;2022-10-14T00:22:17;100515.91;;;2.76;77.68
70458;BME280;57919;56.194;95.716;2022-10-14T00:32:18;100516.66;;;2.80;77.83
70458;BME280;57919;56.194;95.716;2022-10-14T00:42:20;100523.69;;;2.82;78.17
70458;BME280;57919;56.194;95.716;2022-10-14T00:52:23;100547.69;;;2.84;78.15
70458;BME280;57919;56.194;95.716;2022-10-14T01:02:26;100550.78;;;2.97;77.85
70458;BME280;57919;56.194;95.716;2022-10-14T01:22:55;100579.09;;;3.02;77.90
70458;BME280;57919;56.194;95.716;2022-10-14T01:33:03;100581.66;;;3.30;77.91
70458;BME280;57919;56.194;95.716;2022-10-14T01:43:09;100590.69;;;3.51;77.16
70458;BME280;57919;56.194;95.716;2022-10-14T01:53:28;100603.56;;;3.65;77.08
70458;BME280;57919;56.194;95.716;2022-10-14T02:03:59;100612.97;;;3.98;77.73
70458;BME280;57919;56.194;95.716;2022-10-14T02:24:18;100635.78;;;3.62;76.87
70458;BME280;57919;56.194;95.716;2022-10-14T02:34:22;100646.59;;;3.59;77.28
70458;BME280;57919;56.194;95.716;2022-10-14T02:44:25;100650.63;;;3.94;76.40
70458;BME280;57919;56.194;95.716;2022-10-14T02:54:28;100655.09;;;3.93;76.74
70458;BME280;57919;56.194;95.716;2022-10-14T03:04:32;100645.03;;;4.45;76.08
70458;BME280;57919;56.194;95.716;2022-10-14T03:14:35;100661.31;;;4.17;76.26
70458;BME280;57919;56.194;95.716;2022-10-14T03:24:38;100666.72;;;4.82;75.45
70458;BME280;57919;56.194;95.716;2022-10-14T03:35:08;100685.53;;;4.81;74.54
70458;BME280;57919;56.194;95.716;2022-10-14T03:45:12;100692.03;;;4.75;73.38
70458;BME280;57919;56.194;95.716;2022-10-14T03:55:15;100700.75;;;4.59;73.00
70458;BME280;57919;56.194;95.716;2022-10-14T04:05:20;100713.91;;;4.86;71.78
70458;BME280;57919;56.194;95.716;2022-10-14T04:15:23;100731.44;;;4.95;70.94
70458;BME280;57919;56.194;95.716;2022-10-14T04:25:44;100726.16;;;5.14;71.69
70458;BME280;57919;56.194;95.716;2022-10-14T04:35:47;100740.16;;;5.42;71.10
70458;BME280;57919;56.194;95.716;2022-10-14T04:45:56;100744.41;;;5.06;71.20
70458;BME280;57919;56.194;95.716;2022-10-14T04:56:01;100754.00;;;4.90;72.18
70458;BME280;57919;56.194;95.716;2022-10-14T05:06:04;100752.38;;;5.07;71.36
70458;BME280;57919;56.194;95.716;2022-10-14T05:16:08;100757.97;;;5.23;71.73
70458;BME280;57919;56.194;95.716;2022-10-14T05:26:10;100762.19;;;5.50;71.50
70458;BME280;57919;56.194;95.716;2022-10-14T05:36:14;100775.94;;;5.43;70.92
70458;BME280;57919;56.194;95.716;2022-10-14T05:46:16;100787.56;;;5.00;71.60
70458;BME280;57919;56.194;95.716;2022-10-14T05:56:24;100786.22;;;4.88;72.39
70458;BME280;57919;56.194;95.716;2022-10-14T06:06:26;100787.31;;;5.28;72.10
70458;BME280;57919;56.194;95.716;2022-10-14T06:16:28;100797.63;;;5.59;70.73
70458;BME280;57919;56.194;95.716;2022-10-14T06:26:30;100797.28;;;5.24;71.48
70458;BME280;57919;56.194;95.716;2022-10-14T06:36:33;100784.84;;;5.43;70.44
70458;BME280;57919;56.194;95.716;2022-10-14T06:46:35;100773.78;;;5.93;69.66
70458;BME280;57919;56.194;95.716;2022-10-14T06:56:37;100763.03;;;6.32;68.69
70458;BME280;57919;56.194;95.716;2022-10-14T07:06:40;100801.22;;;6.59;67.47
70458;BME280;57919;56.194;95.716;2022-10-14T07:16:42;100789.22;;;6.66;67.40
70458;BME280;57919;56.194;95.716;2022-10-14T07:26:44;100790.56;;;7.31;65.20
70458;BME280;57919;56.194;95.716;2022-10-14T07:36:46;100796.34;;;7.05;66.30
70458;BME280;57919;56.194;95.716;2022-10-14T07:46:48;100806.91;;;6.33;64.34
70458;BME280;57919;56.194;95.716;2022-10-14T07:56:51;100825.31;;;5.81;66.06
70458;BME280;57919;56.194;95.716;2022-10-14T08:06:53;100843.44;;;5.54;66.83
70458;BME280;57919;56.194;95.716;2022-10-14T08:16:55;100844.00;;;5.62;67.00
70458;BME280;57919;56.194;95.716;2022-10-14T08:26:57;100839.59;;;6.03;66.99
70458;BME280;57919;56.194;95.716;2022-10-14T08:37:01;100859.53;;;6.38;65.75
70458;BME280;57919;56.194;95.716;2022-10-14T08:47:04;100855.56;;;6.27;66.60
70458;BME280;57919;56.194;95.716;2022-10-14T08:57:18;100850.28;;;6.83;65.58
70458;BME280;57919;56.194;95.716;2022-10-14T09:07:21;100884.72;;;6.36;65.17
70458;BME280;57919;56.194;95.716;2022-10-14T09:17:27;100871.72;;;5.63;65.63
70458;BME280;57919;56.194;95.716;2022-10-14T09:27:33;100909.31;;;5.63;66.20
70458;BME280;57919;56.194;95.716;2022-10-14T09:37:36;100912.91;;;5.83;66.47
70458;BME280;57919;56.194;95.716;2022-10-14T09:47:55;100927.16;;;5.64;66.28
70458;BME280;57919;56.194;95.716;2022-10-14T09:58:06;100912.72;;;5.44;66.43
70458;BME280;57919;56.194;95.716;2022-10-14T10:08:17;100937.75;;;5.45;66.66
70458;BME280;57919;56.194;95.716;2022-10-14T10:18:19;100942.66;;;5.79;66.19
70458;BME280;57919;56.194;95.716;2022-10-14T10:28:28;100941.47;;;5.64;66.29
70458;BME280;57919;56.194;95.716;2022-10-14T11:10:25;100994.09;;;4.98;68.08
70458;BME280;57919;56.194;95.716;2022-10-14T11:31:37;101009.09;;;4.54;68.40
70458;BME280;57919;56.194;95.716;2022-10-14T11:42:14;101027.56;;;4.37;69.50
70458;BME280;57919;56.194;95.716;2022-10-14T11:52:31;101033.94;;;4.33;69.13
70458;BME280;57919;56.194;95.716;2022-10-14T12:12:58;101050.44;;;4.47;69.47
70458;BME280;57919;56.194;95.716;2022-10-14T12:23:02;101075.63;;;4.41;69.40
70458;BME280;57919;56.194;95.716;2022-10-14T12:33:09;101094.94;;;4.25;69.78
70458;BME280;57919;56.194;95.716;2022-10-14T12:43:24;101096.44;;;4.05;70.48
70458;BME280;57919;56.194;95.716;2022-10-14T12:53:29;101086.16;;;3.92;70.75
70458;BME280;57919;56.194;95.716;2022-10-14T13:03:44;101098.66;;;3.91;71.11
70458;BME280;57919;56.194;95.716;2022-10-14T13:13:48;101113.50;;;3.73;71.06
70458;BME280;57919;56.194;95.716;2022-10-14T13:23:54;101105.66;;;3.67;71.24
70458;BME280;57919;56.194;95.716;2022-10-14T13:44:29;101125.59;;;3.24;72.21
70458;BME280;57919;56.194;95.716;2022-10-14T13:54:33;101131.31;;;3.11;72.57
70458;BME280;57919;56.194;95.716;2022-10-14T14:04:36;101128.09;;;2.98;72.66
70458;BME280;57919;56.194;95.716;2022-10-14T14:14:42;101127.47;;;2.88;73.40
70458;BME280;57919;56.194;95.716;2022-10-14T14:24:45;101129.50;;;2.79;73.17
70458;BME280;57919;56.194;95.716;2022-10-14T14:34:49;101108.75;;;2.54;73.65
70458;BME280;57919;56.194;95.716;2022-10-14T14:44:54;101139.69;;;2.63;73.56
70458;BME280;57919;56.194;95.716;2022-10-14T14:54:58;101141.84;;;2.49;73.67
70458;BME280;57919;56.194;95.716;2022-10-14T15:05:09;101125.66;;;2.18;73.73
70458;BME280;57919;56.194;95.716;2022-10-14T15:15:31;101141.16;;;2.02;74.07
70458;BME280;57919;56.194;95.716;2022-10-14T15:25:39;101147.97;;;1.75;74.14
70458;BME280;57919;56.194;95.716;2022-10-14T15:35:43;101155.31;;;1.64;74.44
70458;BME280;57919;56.194;95.716;2022-10-14T15:45:51;101160.22;;;1.42;74.70
70458;BME280;57919;56.194;95.716;2022-10-14T15:56:13;101164.88;;;1.31;74.77
70458;BME280;57919;56.194;95.716;2022-10-14T16:06:17;101164.06;;;1.26;75.12
70458;BME280;57919;56.194;95.716;2022-10-14T16:16:42;101165.53;;;1.42;75.01
70458;BME280;57919;56.194;95.716;2022-10-14T16:26:45;101169.31;;;1.75;74.51
70458;BME280;57919;56.194;95.716;2022-10-14T16:36:50;101174.56;;;1.80;74.29
70458;BME280;57919;56.194;95.716;2022-10-14T16:46:56;101180.13;;;1.68;74.61
70458;BME280;57919;56.194;95.716;2022-10-14T16:57:16;101170.09;;;1.80;74.20
70458;BME280;57919;56.194;95.716;2022-10-14T17:07:18;101164.72;;;1.82;74.40
70458;BME280;57919;56.194;95.716;2022-10-14T17:17:20;101174.22;;;1.95;74.15
70458;BME280;57919;56.194;95.716;2022-10-14T17:27:24;101171.56;;;1.95;74.53
70458;BME280;57919;56.194;95.716;2022-10-14T17:37:27;101175.13;;;1.94;74.25
70458;BME280;57919;56.194;95.716;2022-10-14T17:47:31;101176.47;;;1.73;74.58
70458;BME280;57919;56.194;95.716;2022-10-14T17:57:33;101179.16;;;1.72;74.85
70458;BME280;57919;56.194;95.716;2022-10-14T18:07:36;101168.94;;;1.92;74.56
70458;BME280;57919;56.194;95.716;2022-10-14T18:17:38;101166.25;;;1.93;74.44
70458;BME280;57919;56.194;95.716;2022-10-14T18:27:40;101172.66;;;1.85;74.59
70458;BME280;57919;56.194;95.716;2022-10-14T18:37:42;101178.72;;;1.93;74.52
70458;BME280;57919;56.194;95.716;2022-10-14T18:47:45;101168.16;;;1.87;74.60
70458;BME280;57919;56.194;95.716;2022-10-14T18:57:47;101169.03;;;1.89;74.63
70458;BME280;57919;56.194;95.716;2022-10-14T19:07:49;101172.72;;;1.82;74.78
70458;BME280;57919;56.194;95.716;2022-10-14T19:17:54;101177.09;;;1.86;74.73
70458;BME280;57919;56.194;95.716;2022-10-14T19:27:57;101187.75;;;1.86;74.79
70458;BME280;57919;56.194;95.716;2022-10-14T19:37:59;101183.41;;;1.82;74.85
70458;BME280;57919;56.194;95.716;2022-10-14T19:48:01;101167.66;;;1.70;74.72
70458;BME280;57919;56.194;95.716;2022-10-14T19:58:04;101160.78;;;1.58;74.73
70458;BME280;57919;56.194;95.716;2022-10-14T20:08:06;101182.09;;;1.59;74.99
70458;BME280;57919;56.194;95.716;2022-10-14T20:18:08;101178.66;;;1.53;75.08
70458;BME280;57919;56.194;95.716;2022-10-14T20:28:10;101169.13;;;1.41;75.09
70458;BME280;57919;56.194;95.716;2022-10-14T20:38:12;101176.28;;;1.38;75.39
70458;BME280;57919;56.194;95.716;2022-10-14T20:48:14;101183.88;;;1.59;75.40
70458;BME280;57919;56.194;95.716;2022-10-14T20:58:16;101188.16;;;1.66;75.49
70458;BME280;57919;56.194;95.716;2022-10-14T21:08:19;101188.22;;;1.63;75.26
70458;BME280;57919;56.194;95.716;2022-10-14T21:18:22;101185.69;;;1.57;75.47
70458;BME280;57919;56.194;95.716;2022-10-14T21:28:24;101200.88;;;1.53;75.62
70458;BME280;57919;56.194;95.716;2022-10-14T21:38:27;101203.72;;;1.44;75.35
70458;BME280;57919;56.194;95.716;2022-10-14T21:48:30;101190.78;;;1.23;75.99
70458;BME280;57919;56.194;95.716;2022-10-14T21:58:32;101194.31;;;1.25;75.76
70458;BME280;57919;56.194;95.716;2022-10-14T22:08:36;101177.53;;;1.18;76.13
70458;BME280;57919;56.194;95.716;2022-10-14T22:18:39;101204.41;;;1.06;76.58
70458;BME280;57919;56.194;95.716;2022-10-14T22:28:45;101209.00;;;0.98;76.99
70458;BME280;57919;56.194;95.716;2022-10-14T22:38:48;101204.31;;;1.12;76.76
70458;BME280;57919;56.194;95.716;2022-10-14T22:48:52;101192.25;;;0.91;76.89
70458;BME280;57919;56.194;95.716;2022-10-14T22:59:03;101199.63;;;0.74;77.61
70458;BME280;57919;56.194;95.716;2022-10-14T23:09:05;101205.88;;;0.73;78.02
70458;BME280;57919;56.194;95.716;2022-10-14T23:19:07;101205.97;;;0.67;78.26
70458;BME280;57919;56.194;95.716;2022-10-14T23:29:10;101201.19;;;0.87;77.96
70458;BME280;57919;56.194;95.716;2022-10-14T23:39:12;101211.50;;;0.53;78.35
70458;BME280;57919;56.194;95.716;2022-10-14T23:49:15;101211.06;;;0.24;79.19
70458;BME280;57919;56.194;95.716;2022-10-14T23:59:16;101205.25;;;-0.07;80.87
